Time,TemperatureF,DewpointF,PressureIn,WindDirection,WindDirectionDegrees,WindSpeedMPH,WindSpeedGustMPH,Humidity,HourlyPrecipIn,Conditions,Clouds,dailyrainin,SoftwareType,DateUTC
2013-07-10 00:01:00,70.2,44.7,30.05,East,90,2.3,2.3,40,0.00,RA,,0.00,WeatherDisplay:10.37,2013-07-10 04:01:00,
2013-07-10 00:06:00,70.2,44.7,30.05,SE,135,1.2,1.2,40,0.00,RA,,0.00,WeatherDisplay:10.37,2013-07-10 04:06:00,
2013-07-10 00:11:00,70.2,44.7,30.05,SE,135,1.2,1.2,40,0.00,CLR,,0.00,WeatherDisplay:10.37,2013-07-10 04:11:00,
2013-07-10 00:16:00,70.0,44.5,30.05,SE,135,1.2,1.2,40,0.00,CLR,,0.00,WeatherDisplay:10.37,2013-07-10 04:16:00,
2013-07-10 00:21:00,70.0,44.5,30.03,SE,135,1.2,1.2,40,0.00,CLR,,0.00,WeatherDisplay:10.37,2013-07-10 04:21:00,
2013-07-10 00:26:00,70.0,44.5,30.03,ESE,112,0.0,0.0,40,0.00,CLR,,0.00,WeatherDisplay:10.37,2013-07-10 04:26:00,
2013-07-10 00:31:00,70.0,44.5,30.03,SSE,158,0.0,0.5,40,0.00,CLR,,0.00,WeatherDisplay:10.37,2013-07-10 04:31:00,
2013-07-10 00:36:00,70.0,44.5,30.03,SE,135,1.2,0.0,40,0.00,CLR,,0.00,WeatherDisplay:10.37,2013-07-10 04:36:00,
2013-07-10 00:41:00,70.0,44.5,30.03,SSE,158,0.0,0.0,40,0.00,CLR,,0.00,WeatherDisplay:10.37,2013-07-10 04:41:00,
2013-07-10 00:46:00,70.0,44.5,30.03,SE,135,0.0,0.0,40,0.00,CLR,,0.00,WeatherDisplay:10.37,2013-07-10 04:46:00,
2013-07-10 00:51:00,70.0,44.5,30.03,SE,135,0.0,0.5,40,0.00,CLR,,0.00,WeatherDisplay:10.37,2013-07-10 04:51:00,
2013-07-10 00:56:00,70.0,44.5,30.03,SE,135,0.0,0.0,40,0.00,CLR,,0.00,WeatherDisplay:10.37,2013-07-10 04:56:00,
2013-07-10 01:01:00,70.0,44.5,30.03,SE,135,0.0,0.0,40,0.00,CLR,,0.00,WeatherDisplay:10.37,2013-07-10 05:01:00,
2013-07-10 01:06:00,70.0,44.5,30.03,SE,135,1.2,1.2,40,0.00,CLR,,0.00,WeatherDisplay:10.37,2013-07-10 05:06:00,
2013-07-10 01:11:00,70.0,44.5,30.03,SE,135,2.3,2.3,40,0.00,CLR,,0.00,WeatherDisplay:10.37,2013-07-10 05:11:00,
2013-07-10 01:16:00,69.8,44.4,30.03,South,180,2.3,2.3,40,0.00,CLR,,0.00,WeatherDisplay:10.37,2013-07-10 05:16:00,
2013-07-10 01:21:00,69.8,44.4,30.03,South,180,0.0,0.0,40,0.00,CLR,,0.00,WeatherDisplay:10.37,2013-07-10 05:21:00,
2013-07-10 01:26:00,69.8,43.7,30.03,ENE,68,0.0,0.0,39,0.00,CLR,,0.00,WeatherDisplay:10.37,2013-07-10 05:26:00,
2013-07-10 01:31:00,69.8,44.4,30.03,SE,135,0.5,0.5,40,0.00,CLR,,0.00,WeatherDisplay:10.37,2013-07-10 05:31:00,
2013-07-10 01:36:00,69.8,43.7,30.02,SE,135,2.3,2.3,39,0.00,CLR,,0.00,WeatherDisplay:10.37,2013-07-10 05:36:00,
2013-07-10 01:41:00,69.8,43.7,30.02,SE,135,2.3,2.3,39,0.00,CLR,,0.00,WeatherDisplay:10.37,2013-07-10 05:41:00,
2013-07-10 01:46:00,69.6,43.6,30.03,South,180,2.3,0.0,39,0.00,CLR,,0.00,WeatherDisplay:10.37,2013-07-10 05:46:00,
2013-07-10 01:51:00,69.6,43.6,30.03,South,180,1.2,1.2,39,0.00,CLR,,0.00,WeatherDisplay:10.37,2013-07-10 05:51:00,
2013-07-10 01:56:00,69.6,43.6,30.02,ESE,112,2.3,2.9,39,0.00,CLR,,0.00,WeatherDisplay:10.37,2013-07-10 05:56:00,
2013-07-10 02:01:00,69.4,43.4,30.02,SE,135,1.2,1.2,39,0.00,CLR,,0.00,WeatherDisplay:10.37,2013-07-10 06:01:00,
2013-07-10 02:06:00,69.4,43.4,30.02,ESE,112,0.0,0.0,39,0.00,CLR,,0.00,WeatherDisplay:10.37,2013-07-10 06:06:00,
2013-07-10 02:11:00,69.4,43.4,30.00,East,90,2.3,2.4,39,0.00,CLR,,0.00,WeatherDisplay:10.37,2013-07-10 06:11:00,
2013-07-10 02:16:00,69.4,43.4,30.00,East,90,0.0,0.2,39,0.00,CLR,,0.00,WeatherDisplay:10.37,2013-07-10 06:16:00,
2013-07-10 02:21:00,69.4,43.4,30.00,SE,135,2.3,2.3,39,0.00,CLR,,0.00,WeatherDisplay:10.37,2013-07-10 06:21:00,
2013-07-10 02:27:00,69.4,43.4,30.00,ENE,68,1.2,1.2,39,0.00,CLR,,0.00,WeatherDisplay:10.37,2013-07-10 06:27:00,
2013-07-10 02:32:00,69.4,43.4,30.00,ESE,112,1.2,1.2,39,0.00,CLR,,0.00,WeatherDisplay:10.37,2013-07-10 06:32:00,
2013-07-10 02:37:00,69.4,43.4,30.00,SE,135,0.0,0.5,39,0.00,CLR,,0.00,WeatherDisplay:10.37,2013-07-10 06:37:00,
2013-07-10 02:42:00,69.6,43.6,30.00,SSE,158,0.0,1.2,39,0.00,CLR,,0.00,WeatherDisplay:10.37,2013-07-10 06:42:00,
2013-07-10 02:47:00,69.6,42.9,30.00,SSE,158,0.0,0.0,38,0.00,CLR,,0.00,WeatherDisplay:10.37,2013-07-10 06:47:00,
2013-07-10 02:52:00,69.6,42.9,30.00,SE,135,0.0,0.0,38,0.00,CLR,,0.00,WeatherDisplay:10.37,2013-07-10 06:52:00,
2013-07-10 02:57:00,69.6,42.9,30.00,SE,135,1.2,1.4,38,0.00,CLR,,0.00,WeatherDisplay:10.37,2013-07-10 06:57:00,
2013-07-10 03:02:00,69.6,42.9,30.00,SE,135,1.2,0.0,38,0.00,CLR,,0.00,WeatherDisplay:10.37,2013-07-10 07:02:00,
2013-07-10 03:07:00,69.6,42.9,30.00,SE,135,1.2,1.2,38,0.00,CLR,,0.00,WeatherDisplay:10.37,2013-07-10 07:07:00,
2013-07-10 03:12:00,69.6,42.9,30.00,ESE,112,1.2,1.2,38,0.00,CLR,,0.00,WeatherDisplay:10.37,2013-07-10 07:12:00,
2013-07-10 03:17:00,69.6,42.9,30.00,SE,135,0.0,0.5,38,0.00,CLR,,0.00,WeatherDisplay:10.37,2013-07-10 07:17:00,
2013-07-10 03:22:00,69.6,42.9,30.00,SE,135,0.0,0.0,38,0.00,CLR,,0.00,WeatherDisplay:10.37,2013-07-10 07:22:00,
2013-07-10 03:27:00,69.6,42.9,30.00,SE,135,1.2,1.2,38,0.00,CLR,,0.00,WeatherDisplay:10.37,2013-07-10 07:27:00,
2013-07-10 03:32:00,69.6,42.9,29.99,SE,135,1.2,1.2,38,0.00,CLR,,0.00,WeatherDisplay:10.37,2013-07-10 07:32:00,
2013-07-10 03:37:00,69.4,42.7,29.99,SE,135,0.0,0.5,38,0.00,CLR,,0.00,WeatherDisplay:10.37,2013-07-10 07:37:00,
2013-07-10 03:42:00,69.6,42.9,29.99,SE,135,0.0,0.2,38,0.00,CLR,,0.00,WeatherDisplay:10.37,2013-07-10 07:42:00,
2013-07-10 03:47:00,69.6,42.2,29.99,SE,135,0.0,0.0,37,0.00,CLR,,0.00,WeatherDisplay:10.37,2013-07-10 07:47:00,
2013-07-10 03:52:00,69.6,42.2,29.99,SE,135,0.0,0.0,37,0.00,CLR,,0.00,WeatherDisplay:10.37,2013-07-10 07:52:00,
2013-07-10 03:57:00,69.8,42.3,29.99,ESE,112,0.0,0.0,37,0.00,CLR,,0.00,WeatherDisplay:10.37,2013-07-10 07:57:00,
2013-07-10 04:02:00,69.8,42.3,29.99,ESE,112,0.0,0.0,37,0.00,CLR,,0.00,WeatherDisplay:10.37,2013-07-10 08:02:00,
2013-07-10 04:07:00,69.8,42.3,29.99,ESE,112,0.0,0.0,37,0.00,CLR,,0.00,WeatherDisplay:10.37,2013-07-10 08:07:00,
2013-07-10 04:12:00,69.8,42.3,29.99,SE,135,0.0,0.5,37,0.00,CLR,,0.00,WeatherDisplay:10.37,2013-07-10 08:12:00,
2013-07-10 04:17:00,69.8,42.3,29.99,ESE,112,0.0,0.0,37,0.00,CLR,,0.00,WeatherDisplay:10.37,2013-07-10 08:17:00,
2013-07-10 04:22:00,69.8,42.3,29.99,ESE,112,0.0,0.0,37,0.00,CLR,,0.00,WeatherDisplay:10.37,2013-07-10 08:22:00,
2013-07-10 04:27:00,69.8,42.3,29.99,ESE,112,0.0,0.0,37,0.00,CLR,,0.00,WeatherDisplay:10.37,2013-07-10 08:27:00,
2013-07-10 04:32:00,69.8,42.3,29.98,ESE,112,0.0,0.0,37,0.00,CLR,,0.00,WeatherDisplay:10.37,2013-07-10 08:32:00,
2013-07-10 04:37:00,69.8,42.3,29.99,ESE,112,0.0,0.0,37,0.00,CLR,,0.00,WeatherDisplay:10.37,2013-07-10 08:37:00,
2013-07-10 04:42:00,69.8,42.3,29.99,ESE,112,0.0,0.0,37,0.00,CLR,,0.00,WeatherDisplay:10.37,2013-07-10 08:42:00,
2013-07-10 04:47:00,69.8,42.3,29.98,ESE,112,0.0,0.0,37,0.00,CLR,,0.00,WeatherDisplay:10.37,2013-07-10 08:47:00,
2013-07-10 04:52:00,69.8,42.3,29.98,ESE,112,0.0,0.0,37,0.00,CLR,,0.00,WeatherDisplay:10.37,2013-07-10 08:52:00,
2013-07-10 04:57:00,70.0,42.5,29.98,ESE,112,1.2,1.2,37,0.00,CLR,,0.00,WeatherDisplay:10.37,2013-07-10 08:57:00,
2013-07-10 05:02:00,69.8,42.3,29.98,ESE,112,1.2,1.2,37,0.00,CLR,,0.00,WeatherDisplay:10.37,2013-07-10 09:02:00,
2013-07-10 05:07:00,69.8,42.3,29.98,ESE,112,0.0,0.5,37,0.00,CLR,,0.00,WeatherDisplay:10.37,2013-07-10 09:07:00,
2013-07-10 05:12:00,69.8,42.3,29.98,ESE,112,0.0,0.0,37,0.00,CLR,,0.00,WeatherDisplay:10.37,2013-07-10 09:12:00,
2013-07-10 05:17:00,70.0,41.8,29.98,ESE,112,0.0,0.5,36,0.00,CLR,,0.00,WeatherDisplay:10.37,2013-07-10 09:17:00,
2013-07-10 05:22:00,70.0,41.8,29.99,ESE,112,1.2,1.2,36,0.00,CLR,,0.00,WeatherDisplay:10.37,2013-07-10 09:22:00,
2013-07-10 05:27:00,70.0,41.8,29.98,SE,135,0.0,0.0,36,0.00,CLR,,0.00,WeatherDisplay:10.37,2013-07-10 09:27:00,
2013-07-10 05:32:00,70.0,41.8,29.99,SE,135,1.2,1.2,36,0.00,CLR,,0.00,WeatherDisplay:10.37,2013-07-10 09:32:00,
2013-07-10 05:37:00,70.2,41.2,29.99,SE,135,0.0,0.0,35,0.00,CLR,,0.00,WeatherDisplay:10.37,2013-07-10 09:37:00,
2013-07-10 05:42:00,70.2,41.2,29.99,SE,135,0.0,0.0,35,0.00,CLR,,0.00,WeatherDisplay:10.37,2013-07-10 09:42:00,
2013-07-10 05:47:00,70.2,41.2,29.99,SE,135,0.0,0.0,35,0.00,CLR,,0.00,WeatherDisplay:10.37,2013-07-10 09:47:00,
2013-07-10 05:52:00,70.3,41.4,29.99,SE,135,0.0,0.0,35,0.00,CLR,,0.00,WeatherDisplay:10.37,2013-07-10 09:52:00,
2013-07-10 05:57:00,70.3,41.4,29.99,SE,135,0.0,0.0,35,0.00,CLR,,0.00,WeatherDisplay:10.37,2013-07-10 09:57:00,
2013-07-10 06:02:00,70.3,41.4,29.99,SE,135,1.2,1.2,35,0.00,CLR,,0.00,WeatherDisplay:10.37,2013-07-10 10:02:00,
2013-07-10 06:07:00,70.5,41.5,29.99,SE,135,1.2,1.4,35,0.00,CLR,,0.00,WeatherDisplay:10.37,2013-07-10 10:07:00,
2013-07-10 06:12:00,70.5,41.5,29.99,ESE,112,0.0,0.5,35,0.00,CLR,,0.00,WeatherDisplay:10.37,2013-07-10 10:12:00,
2013-07-10 06:17:00,70.5,41.5,29.99,ESE,112,1.2,1.2,35,0.00,CLR,,0.00,WeatherDisplay:10.37,2013-07-10 10:17:00,
2013-07-10 06:22:00,70.7,41.7,29.99,ESE,112,0.0,0.0,35,0.00,CLR,,0.00,WeatherDisplay:10.37,2013-07-10 10:22:00,
2013-07-10 06:27:00,70.9,41.9,29.99,ESE,112,0.0,0.0,35,0.00,CLR,,0.00,WeatherDisplay:10.37,2013-07-10 10:27:00,
2013-07-10 06:32:00,70.9,41.9,29.99,ESE,112,0.0,0.2,35,0.00,CLR,,0.00,WeatherDisplay:10.37,2013-07-10 10:32:00,
2013-07-10 06:37:00,71.1,42.0,29.99,ESE,112,1.2,1.2,35,0.00,CLR,,0.00,WeatherDisplay:10.37,2013-07-10 10:37:00,
2013-07-10 06:42:00,71.2,42.2,29.99,ESE,112,0.0,0.0,35,0.00,CLR,,0.00,WeatherDisplay:10.37,2013-07-10 10:42:00,
2013-07-10 06:47:00,71.2,41.4,29.99,SE,135,0.0,0.0,34,0.00,CLR,,0.00,WeatherDisplay:10.37,2013-07-10 10:47:00,
2013-07-10 06:52:00,71.4,41.6,29.99,ESE,112,1.8,1.8,34,0.00,CLR,,0.00,WeatherDisplay:10.37,2013-07-10 10:52:00,
2013-07-10 06:57:00,71.2,41.4,29.99,South,180,1.2,1.2,34,0.00,CLR,,0.00,WeatherDisplay:10.37,2013-07-10 10:57:00,
2013-07-10 07:02:00,71.6,41.7,29.99,SE,135,0.0,0.2,34,0.00,CLR,,0.00,WeatherDisplay:10.37,2013-07-10 11:02:00,
2013-07-10 07:07:00,71.6,41.7,29.99,SSE,158,2.0,2.0,34,0.00,CLR,,0.00,WeatherDisplay:10.37,2013-07-10 11:07:00,
2013-07-10 07:12:00,71.8,41.9,29.98,SSW,202,1.2,1.2,34,0.00,CLR,,0.00,WeatherDisplay:10.37,2013-07-10 11:12:00,
2013-07-10 07:17:00,72.0,42.0,29.98,SSE,158,1.2,1.2,34,0.00,CLR,,0.00,WeatherDisplay:10.37,2013-07-10 11:17:00,
2013-07-10 07:22:00,72.0,42.0,29.98,SSE,158,1.2,0.0,34,0.00,CLR,,0.00,WeatherDisplay:10.37,2013-07-10 11:22:00,
2013-07-10 07:27:00,72.0,42.0,29.98,SSE,158,1.2,1.2,34,0.00,CLR,,0.00,WeatherDisplay:10.37,2013-07-10 11:27:00,
2013-07-10 07:32:00,72.0,42.0,29.98,SSW,202,1.2,0.0,34,0.00,CLR,,0.00,WeatherDisplay:10.37,2013-07-10 11:32:00,
2013-07-10 07:37:00,72.0,42.0,29.99,SSE,158,1.2,0.0,34,0.00,CLR,,0.00,WeatherDisplay:10.37,2013-07-10 11:37:00,
2013-07-10 07:42:00,72.0,42.0,29.98,SSW,202,1.2,1.2,34,0.00,CLR,,0.00,WeatherDisplay:10.37,2013-07-10 11:42:00,
2013-07-10 07:43:00,72.0,42.0,29.98,SSW,202,1.2,1.6,34,0.00,CLR,,0.00,WeatherDisplay:10.37,2013-07-10 11:43:00,
2013-07-10 07:48:00,72.0,42.0,29.98,SSE,158,1.2,1.2,34,0.00,CLR,,0.00,WeatherDisplay:10.37,2013-07-10 11:48:00,
2013-07-10 07:53:00,72.3,42.4,29.98,SSE,158,1.2,1.2,34,0.00,CLR,,0.00,WeatherDisplay:10.37,2013-07-10 11:53:00,
2013-07-10 07:58:00,72.5,41.7,29.98,South,180,0.0,0.5,33,0.00,CLR,,0.00,WeatherDisplay:10.37,2013-07-10 11:58:00,
2013-07-10 08:04:00,72.5,41.7,29.98,South,180,0.0,0.0,33,0.00,CLR,,0.00,WeatherDisplay:10.37,2013-07-10 12:04:00,
2013-07-10 08:09:00,72.9,42.1,29.98,SSW,202,1.2,1.2,33,0.00,CLR,,0.00,WeatherDisplay:10.37,2013-07-10 12:09:00,
2013-07-10 08:14:00,73.2,42.4,29.98,South,180,1.2,1.2,33,0.00,CLR,,0.00,WeatherDisplay:10.37,2013-07-10 12:14:00,
2013-07-10 08:19:00,73.2,42.4,29.98,SSE,158,2.3,2.3,33,0.00,CLR,,0.00,WeatherDisplay:10.37,2013-07-10 12:19:00,
2013-07-10 08:24:00,73.0,42.2,29.98,SE,135,3.5,3.6,33,0.00,CLR,,0.00,WeatherDisplay:10.37,2013-07-10 12:24:00,
2013-07-10 08:29:00,72.9,42.1,29.98,South,180,2.3,2.4,33,0.00,CLR,,0.00,WeatherDisplay:10.37,2013-07-10 12:29:00,
2013-07-10 08:34:00,72.7,41.9,29.98,South,180,1.2,1.2,33,0.00,CLR,,0.00,WeatherDisplay:10.37,2013-07-10 12:34:00,
2013-07-10 08:39:00,72.7,41.9,29.97,SSE,158,3.5,3.8,33,0.00,CLR,,0.00,WeatherDisplay:10.37,2013-07-10 12:39:00,
2013-07-10 08:44:00,72.7,41.9,29.97,SSE,158,1.2,1.6,33,0.00,CLR,,0.00,WeatherDisplay:10.37,2013-07-10 12:44:00,
2013-07-10 08:49:00,73.0,42.2,29.97,SSW,202,1.2,1.6,33,0.00,CLR,,0.00,WeatherDisplay:10.37,2013-07-10 12:49:00,
2013-07-10 08:54:00,73.4,42.5,29.97,SSE,158,0.0,0.5,33,0.00,CLR,,0.00,WeatherDisplay:10.37,2013-07-10 12:54:00,
2013-07-10 08:59:00,73.8,42.9,29.97,SSE,158,2.3,2.4,33,0.00,CLR,,0.00,WeatherDisplay:10.37,2013-07-10 12:59:00,
2013-07-10 09:04:00,73.8,42.9,29.97,SSE,158,2.3,2.3,33,0.00,CLR,,0.00,WeatherDisplay:10.37,2013-07-10 13:04:00,
2013-07-10 09:09:00,73.6,42.7,29.97,SSE,158,1.2,1.4,33,0.00,CLR,,0.00,WeatherDisplay:10.37,2013-07-10 13:09:00,
2013-07-10 09:14:00,73.8,42.9,29.95,SSW,202,1.2,1.2,33,0.00,CLR,,0.00,WeatherDisplay:10.37,2013-07-10 13:14:00,
2013-07-10 09:19:00,73.9,43.0,29.95,South,180,2.3,2.4,33,0.00,CLR,,0.00,WeatherDisplay:10.37,2013-07-10 13:19:00,
2013-07-10 09:24:00,74.1,43.2,29.95,SE,135,1.2,1.6,33,0.00,CLR,,0.00,WeatherDisplay:10.37,2013-07-10 13:24:00,
2013-07-10 09:29:00,74.1,43.2,29.95,SSW,202,1.2,1.2,33,0.00,CLR,,0.00,WeatherDisplay:10.37,2013-07-10 13:29:00,
2013-07-10 09:34:00,74.3,43.3,29.95,South,180,2.3,2.3,33,0.00,CLR,,0.00,WeatherDisplay:10.37,2013-07-10 13:34:00,
2013-07-10 09:39:00,74.5,43.5,29.95,South,180,2.3,2.6,33,0.00,CLR,,0.00,WeatherDisplay:10.37,2013-07-10 13:39:00,
2013-07-10 09:44:00,74.5,44.3,29.95,SW,225,4.6,4.6,34,0.00,CLR,,0.00,WeatherDisplay:10.37,2013-07-10 13:44:00,
2013-07-10 09:49:00,74.7,44.4,29.95,SSW,202,4.6,4.6,34,0.00,CLR,,0.00,WeatherDisplay:10.37,2013-07-10 13:49:00,
2013-07-10 09:54:00,74.8,44.6,29.95,SSW,202,4.6,4.6,34,0.00,CLR,,0.00,WeatherDisplay:10.37,2013-07-10 13:54:00,
2013-07-10 09:59:00,75.0,44.7,29.95,SSW,202,1.2,1.4,34,0.00,CLR,,0.00,WeatherDisplay:10.37,2013-07-10 13:59:00,
2013-07-10 10:04:00,75.6,45.2,29.95,SSW,202,1.2,1.2,34,0.00,CLR,,0.00,WeatherDisplay:10.37,2013-07-10 14:04:00,
2013-07-10 10:09:00,75.6,45.2,29.95,SE,135,2.3,2.3,34,0.00,CLR,,0.00,WeatherDisplay:10.37,2013-07-10 14:09:00,
2013-07-10 10:14:00,75.7,45.4,29.95,SSE,158,3.5,3.8,34,0.00,CLR,,0.00,WeatherDisplay:10.37,2013-07-10 14:14:00,
2013-07-10 10:19:00,75.9,45.5,29.95,SSW,202,3.5,3.5,34,0.00,CLR,,0.00,WeatherDisplay:10.37,2013-07-10 14:19:00,
2013-07-10 10:24:00,75.7,46.1,29.95,SSW,202,2.3,2.3,35,0.00,CLR,,0.00,WeatherDisplay:10.37,2013-07-10 14:24:00,
2013-07-10 10:29:00,75.7,46.9,29.95,SSW,202,3.5,3.5,36,0.00,CLR,,0.00,WeatherDisplay:10.37,2013-07-10 14:29:00,
2013-07-10 10:34:00,75.6,46.7,29.95,South,180,4.6,4.9,36,0.00,CLR,,0.00,WeatherDisplay:10.37,2013-07-10 14:34:00,
2013-07-10 10:39:00,75.4,46.6,29.95,SSW,202,5.8,5.8,36,0.00,CLR,,0.00,WeatherDisplay:10.37,2013-07-10 14:39:00,
2013-07-10 10:44:00,75.4,45.8,29.95,SSW,202,2.3,2.6,35,0.00,CLR,,0.00,WeatherDisplay:10.37,2013-07-10 14:44:00,
2013-07-10 10:49:00,75.6,46.0,29.95,South,180,3.5,3.6,35,0.00,CLR,,0.00,WeatherDisplay:10.37,2013-07-10 14:49:00,
2013-07-10 10:54:00,75.4,45.8,29.95,SSE,158,3.5,3.5,35,0.00,CLR,,0.00,WeatherDisplay:10.37,2013-07-10 14:54:00,
2013-07-10 10:59:00,75.4,45.8,29.95,SW,225,3.5,3.5,35,0.00,CLR,,0.00,WeatherDisplay:10.37,2013-07-10 14:59:00,
2013-07-10 11:04:00,75.2,45.7,29.95,SW,225,4.6,4.6,35,0.00,CLR,,0.00,WeatherDisplay:10.37,2013-07-10 15:04:00,
2013-07-10 11:09:00,75.2,45.7,29.95,SSW,202,1.2,1.2,35,0.00,CLR,,0.00,WeatherDisplay:10.37,2013-07-10 15:09:00,
2013-07-10 11:14:00,75.2,44.9,29.95,SSW,202,3.5,3.5,34,0.00,CLR,,0.00,WeatherDisplay:10.37,2013-07-10 15:14:00,
2013-07-10 11:19:00,75.4,45.1,29.95,SW,225,3.5,3.5,34,0.00,CLR,,0.00,WeatherDisplay:10.37,2013-07-10 15:19:00,
2013-07-10 11:24:00,75.7,45.4,29.95,South,180,3.5,3.6,34,0.00,CLR,,0.00,WeatherDisplay:10.37,2013-07-10 15:24:00,
2013-07-10 11:29:00,75.9,44.7,29.95,SW,225,4.6,4.6,33,0.00,CLR,,0.00,WeatherDisplay:10.37,2013-07-10 15:29:00,
2013-07-10 11:34:00,76.5,45.2,29.95,SW,225,3.5,3.6,33,0.00,CLR,,0.00,WeatherDisplay:10.37,2013-07-10 15:34:00,
2013-07-10 11:39:00,76.6,46.2,29.95,SW,225,2.3,2.4,34,0.00,CLR,,0.00,WeatherDisplay:10.37,2013-07-10 15:39:00,
2013-07-10 11:44:00,77.0,46.5,29.94,SW,225,4.6,4.6,34,0.00,CLR,,0.00,WeatherDisplay:10.37,2013-07-10 15:44:00,
2013-07-10 11:49:00,77.4,47.6,29.94,SSW,202,4.6,4.6,35,0.00,CLR,,0.00,WeatherDisplay:10.37,2013-07-10 15:49:00,
2013-07-10 11:54:00,78.3,48.4,29.94,SW,225,5.8,5.8,35,0.00,CLR,,0.00,WeatherDisplay:10.37,2013-07-10 15:54:00,
2013-07-10 11:59:00,78.3,52.0,29.94,ESE,112,4.7,4.7,40,0.00,CLR,,0.00,WeatherDisplay:10.37,2013-07-10 15:59:00,
2013-07-10 12:04:00,78.3,52.0,29.94,SSE,158,4.6,4.6,40,0.00,CLR,,0.00,WeatherDisplay:10.37,2013-07-10 16:04:00,
2013-07-10 12:09:00,78.8,53.1,29.94,SSE,158,5.8,5.8,41,0.00,CLR,,0.00,WeatherDisplay:10.37,2013-07-10 16:09:00,
2013-07-10 12:14:00,78.8,53.8,29.94,WSW,248,3.5,3.5,42,0.00,CLR,,0.00,WeatherDisplay:10.37,2013-07-10 16:14:00,
2013-07-10 12:19:00,78.4,54.1,29.94,WNW,292,7.8,7.8,43,0.00,CLR,,0.00,WeatherDisplay:10.37,2013-07-10 16:19:00,
2013-07-10 12:24:00,79.3,54.3,29.94,SSW,202,5.8,5.8,42,0.00,CLR,,0.00,WeatherDisplay:10.37,2013-07-10 16:24:00,
2013-07-10 12:29:00,80.4,56.5,29.94,SSW,202,6.9,6.9,44,0.00,CLR,,0.00,WeatherDisplay:10.37,2013-07-10 16:29:00,
2013-07-10 12:34:00,80.8,57.5,29.94,SW,225,3.5,3.5,45,0.00,CLR,,0.00,WeatherDisplay:10.37,2013-07-10 16:34:00,
2013-07-10 12:39:00,80.8,58.1,29.94,SSW,202,8.1,8.1,46,0.00,CLR,,0.00,WeatherDisplay:10.37,2013-07-10 16:39:00,
2013-07-10 12:44:00,81.0,58.2,29.93,SSE,158,3.5,3.5,46,0.00,CLR,,0.00,WeatherDisplay:10.37,2013-07-10 16:44:00,
2013-07-10 12:49:00,81.0,59.4,29.93,SW,225,4.6,4.6,48,0.00,CLR,,0.00,WeatherDisplay:10.37,2013-07-10 16:49:00,
2013-07-10 12:54:00,81.3,59.2,29.92,SSW,202,5.8,5.8,47,0.00,CLR,,0.00,WeatherDisplay:10.37,2013-07-10 16:54:00,
2013-07-10 12:59:00,82.0,60.4,29.92,SSW,202,3.5,6.4,48,0.00,CLR,,0.00,WeatherDisplay:10.37,2013-07-10 16:59:00,
2013-07-10 13:04:00,82.2,61.2,29.92,South,180,5.8,5.8,49,0.00,CLR,,0.00,WeatherDisplay:10.37,2013-07-10 17:04:00,
2013-07-10 13:09:00,82.2,60.6,29.92,SW,225,6.9,6.9,48,0.00,CLR,,0.00,WeatherDisplay:10.37,2013-07-10 17:09:00,
2013-07-10 13:14:00,82.4,61.3,29.92,WSW,248,6.9,7.6,49,0.00,CLR,,0.00,WeatherDisplay:10.37,2013-07-10 17:14:00,
2013-07-10 13:20:00,82.4,61.3,29.92,WSW,248,5.8,5.8,49,0.00,CLR,,0.00,WeatherDisplay:10.37,2013-07-10 17:20:00,
2013-07-10 13:25:00,82.2,61.7,29.93,South,180,3.5,3.5,50,0.00,CLR,,0.00,WeatherDisplay:10.37,2013-07-10 17:25:00,
2013-07-10 13:30:00,82.0,61.6,29.92,SW,217,6.0,8.0,50,0.00,CLR,,0.00,WeatherDisplay:10.37,2013-07-10 17:30:00,
2013-07-10 13:35:00,82.0,61.6,29.92,SW,225,6.9,7.1,50,0.00,CLR,,0.00,WeatherDisplay:10.37,2013-07-10 17:35:00,
2013-07-10 13:40:00,81.7,61.2,29.92,SSW,207,6.0,8.0,50,0.00,CLR,,0.00,WeatherDisplay:10.37,2013-07-10 17:40:00,
2013-07-10 13:45:00,81.7,60.7,29.92,SW,225,6.9,6.9,49,0.00,CLR,,0.00,WeatherDisplay:10.37,2013-07-10 17:45:00,
2013-07-10 13:50:00,81.3,60.9,29.92,SW,216,3.0,7.0,50,0.00,CLR,,0.00,WeatherDisplay:10.37,2013-07-10 17:50:00,
2013-07-10 13:54:00,81.5,60.5,29.91,South,180,4.6,4.6,49,0.00,CLR,,0.00,WeatherDisplay:10.37,2013-07-10 17:54:00,
2013-07-10 14:00:00,81.7,60.7,29.91,SSE,158,4.6,4.6,49,0.00,CLR,,0.00,WeatherDisplay:10.37,2013-07-10 18:00:00,
2013-07-10 14:05:00,82.0,61.6,29.90,SSW,202,8.1,8.1,50,0.00,CLR,,0.00,WeatherDisplay:10.37,2013-07-10 18:05:00,
2013-07-10 14:10:00,82.3,61.8,29.90,SW,216,7.0,8.0,50,0.00,CLR,,0.00,WeatherDisplay:10.37,2013-07-10 18:10:00,
2013-07-10 14:15:00,82.6,61.5,29.90,SW,225,6.9,6.9,49,0.00,CLR,,0.00,WeatherDisplay:10.37,2013-07-10 18:15:00,
2013-07-10 14:20:00,83.1,62.0,29.90,SW,222,6.0,8.0,49,0.00,CLR,,0.00,WeatherDisplay:10.37,2013-07-10 18:20:00,
2013-07-10 14:25:00,83.3,63.3,29.90,NW,315,9.2,9.2,51,0.00,CLR,,0.00,WeatherDisplay:10.37,2013-07-10 18:25:00,
2013-07-10 14:30:00,83.3,62.1,29.90,SW,225,3.5,3.5,49,0.00,CLR,,0.00,WeatherDisplay:10.37,2013-07-10 18:30:00,
2013-07-10 14:35:00,83.3,62.7,29.90,SW,225,5.8,5.8,50,0.00,CLR,,0.00,WeatherDisplay:10.37,2013-07-10 18:35:00,
2013-07-10 14:40:00,83.1,62.6,29.90,SW,225,3.5,3.5,50,0.00,CLR,,0.00,WeatherDisplay:10.37,2013-07-10 18:40:00,
2013-07-10 14:45:00,82.9,61.8,29.89,SSW,202,3.5,3.5,49,0.00,CLR,,0.00,WeatherDisplay:10.37,2013-07-10 18:45:00,
2013-07-10 14:50:00,82.8,62.2,29.89,SE,135,4.6,4.9,50,0.00,CLR,,0.00,WeatherDisplay:10.37,2013-07-10 18:50:00,
2013-07-10 14:55:00,82.8,62.2,29.89,SSW,202,5.8,5.8,50,0.00,CLR,,0.00,WeatherDisplay:10.37,2013-07-10 18:55:00,
2013-07-10 15:00:00,82.8,61.6,29.89,SSW,202,3.5,3.5,49,0.00,CLR,,0.00,WeatherDisplay:10.37,2013-07-10 19:00:00,
2013-07-10 15:05:00,82.8,61.6,29.89,SSW,202,8.1,8.1,49,0.00,CLR,,0.00,WeatherDisplay:10.37,2013-07-10 19:05:00,
2013-07-10 15:10:00,82.8,61.1,29.89,WSW,248,4.6,4.7,48,0.00,CLR,,0.00,WeatherDisplay:10.37,2013-07-10 19:10:00,
2013-07-10 15:15:00,82.9,61.2,29.89,SW,225,3.5,3.5,48,0.00,CLR,,0.00,WeatherDisplay:10.37,2013-07-10 19:15:00,
2013-07-10 15:20:00,82.8,62.2,29.89,SW,225,9.2,9.2,50,0.00,CLR,,0.00,WeatherDisplay:10.37,2013-07-10 19:20:00,
2013-07-10 15:25:00,82.2,61.2,29.89,South,180,4.6,4.6,49,0.00,CLR,,0.00,WeatherDisplay:10.37,2013-07-10 19:25:00,
2013-07-10 15:30:00,81.7,60.7,29.89,South,180,8.1,8.1,49,0.00,CLR,,0.00,WeatherDisplay:10.37,2013-07-10 19:30:00,
2013-07-10 15:35:00,81.5,59.3,29.89,SW,225,4.6,4.7,47,0.00,CLR,,0.00,WeatherDisplay:10.37,2013-07-10 19:35:00,
2013-07-10 15:40:00,81.5,59.9,29.88,WSW,248,6.9,7.4,48,0.00,CLR,,0.00,WeatherDisplay:10.37,2013-07-10 19:40:00,
2013-07-10 15:45:00,81.0,59.4,29.88,WSW,248,8.1,8.1,48,0.00,CLR,,0.00,WeatherDisplay:10.37,2013-07-10 19:45:00,
2013-07-10 15:50:00,80.6,58.5,29.88,SSW,202,4.6,4.9,47,0.00,CLR,,0.00,WeatherDisplay:10.37,2013-07-10 19:50:00,
2013-07-10 15:55:00,80.2,57.6,29.88,SSW,202,5.8,5.8,46,0.00,CLR,,0.00,WeatherDisplay:10.37,2013-07-10 19:55:00,
2013-07-10 16:00:00,79.9,57.3,29.87,West,270,3.5,3.5,46,0.00,CLR,,0.00,WeatherDisplay:10.37,2013-07-10 20:00:00,
2013-07-10 16:05:00,79.5,56.9,29.87,South,180,5.8,5.8,46,0.00,CLR,,0.00,WeatherDisplay:10.37,2013-07-10 20:05:00,
2013-07-10 16:10:00,79.5,56.9,29.87,South,180,5.8,5.9,46,0.00,CLR,,0.00,WeatherDisplay:10.37,2013-07-10 20:10:00,
2013-07-10 16:15:00,79.2,56.0,29.87,South,180,5.8,5.9,45,0.00,CLR,,0.00,WeatherDisplay:10.37,2013-07-10 20:15:00,
2013-07-10 16:20:00,78.8,55.7,29.87,South,180,5.8,5.8,45,0.00,CLR,,0.00,WeatherDisplay:10.37,2013-07-10 20:20:00,
2013-07-10 16:25:00,78.8,55.7,29.86,WSW,248,4.6,5.2,45,0.00,CLR,,0.00,WeatherDisplay:10.37,2013-07-10 20:25:00,
2013-07-10 16:30:00,78.6,55.5,29.86,SSW,202,5.8,5.8,45,0.00,CLR,,0.00,WeatherDisplay:10.37,2013-07-10 20:30:00,
2013-07-10 16:35:00,78.4,54.7,29.86,SSW,202,4.6,4.7,44,0.00,CLR,,0.00,WeatherDisplay:10.37,2013-07-10 20:35:00,
2013-07-10 16:40:00,78.3,54.6,29.86,SW,225,5.8,5.8,44,0.00,CLR,,0.00,WeatherDisplay:10.37,2013-07-10 20:40:00,
2013-07-10 16:45:00,78.1,54.4,29.86,South,180,2.3,2.4,44,0.00,CLR,,0.00,WeatherDisplay:10.37,2013-07-10 20:45:00,
2013-07-10 16:50:00,77.7,54.1,29.86,WSW,248,4.6,4.6,44,0.00,CLR,,0.00,WeatherDisplay:10.37,2013-07-10 20:50:00,
2013-07-10 16:55:00,77.4,53.7,29.86,SSW,202,4.6,4.6,44,0.00,CLR,,0.00,WeatherDisplay:10.37,2013-07-10 20:55:00,
2013-07-10 17:00:00,77.2,53.6,29.86,SW,225,6.9,6.9,44,0.00,CLR,,0.00,WeatherDisplay:10.37,2013-07-10 21:00:00,
2013-07-10 17:05:00,77.0,52.8,29.86,WSW,248,3.5,3.5,43,0.00,CLR,,0.00,WeatherDisplay:10.37,2013-07-10 21:05:00,
2013-07-10 17:10:00,76.8,52.0,29.85,SSW,202,5.8,5.8,42,0.00,CLR,,0.00,WeatherDisplay:10.37,2013-07-10 21:10:00,
2013-07-10 17:15:00,76.6,51.8,29.85,SSE,158,5.8,5.8,42,0.00,CLR,,0.00,WeatherDisplay:10.37,2013-07-10 21:15:00,
2013-07-10 17:20:00,76.6,51.2,29.85,SSW,202,4.6,4.6,41,0.00,CLR,,0.00,WeatherDisplay:10.37,2013-07-10 21:20:00,
2013-07-10 17:25:00,76.5,51.0,29.85,SSW,202,4.6,4.6,41,0.00,CLR,,0.00,WeatherDisplay:10.37,2013-07-10 21:25:00,
2013-07-10 17:30:00,76.3,50.8,29.84,North,0,4.6,4.7,41,0.00,CLR,,0.00,WeatherDisplay:10.37,2013-07-10 21:30:00,
2013-07-10 17:35:00,76.3,50.8,29.84,SSW,202,4.6,4.6,41,0.00,CLR,,0.00,WeatherDisplay:10.37,2013-07-10 21:35:00,
2013-07-10 17:40:00,76.3,50.2,29.84,SSE,158,4.6,5.2,40,0.00,CLR,,0.00,WeatherDisplay:10.37,2013-07-10 21:40:00,
2013-07-10 17:45:00,76.3,50.2,29.83,SSW,202,6.9,6.9,40,0.00,CLR,,0.00,WeatherDisplay:10.37,2013-07-10 21:45:00,
2013-07-10 17:50:00,76.3,49.5,29.83,WSW,248,8.1,8.1,39,0.00,CLR,,0.00,WeatherDisplay:10.37,2013-07-10 21:50:00,
2013-07-10 17:55:00,76.1,49.3,29.83,WSW,248,6.9,6.9,39,0.00,CLR,,0.00,WeatherDisplay:10.37,2013-07-10 21:55:00,
2013-07-10 18:00:00,76.1,49.3,29.83,SW,225,4.7,4.7,39,0.00,CLR,,0.00,WeatherDisplay:10.37,2013-07-10 22:00:00,
2013-07-10 18:05:00,75.9,49.2,29.83,SW,225,5.8,5.8,39,0.00,CLR,,0.00,WeatherDisplay:10.37,2013-07-10 22:05:00,
2013-07-10 18:10:00,75.9,49.2,29.83,SSW,202,5.8,5.8,39,0.00,CLR,,0.00,WeatherDisplay:10.37,2013-07-10 22:10:00,
2013-07-10 18:15:00,75.9,48.5,29.82,SW,225,4.6,4.6,38,0.00,CLR,,0.00,WeatherDisplay:10.37,2013-07-10 22:15:00,
2013-07-10 18:20:00,75.9,48.5,29.83,SW,225,3.5,6.4,38,0.00,CLR,,0.00,WeatherDisplay:10.37,2013-07-10 22:20:00,
2013-07-10 18:25:00,75.9,48.5,29.83,SSW,202,4.6,6.9,38,0.00,CLR,,0.00,WeatherDisplay:10.37,2013-07-10 22:25:00,
2013-07-10 18:30:00,75.7,47.6,29.83,SSW,202,3.5,3.5,37,0.00,CLR,,0.00,WeatherDisplay:10.37,2013-07-10 22:30:00,
2013-07-10 18:35:00,75.7,47.6,29.82,SSW,202,2.3,4.0,37,0.00,CLR,,0.00,WeatherDisplay:10.37,2013-07-10 22:35:00,
2013-07-10 18:40:00,75.7,47.6,29.82,South,180,4.6,4.6,37,0.00,CLR,,0.00,WeatherDisplay:10.37,2013-07-10 22:40:00,
2013-07-10 18:45:00,75.9,47.8,29.82,SSW,202,4.6,4.6,37,0.00,CLR,,0.00,WeatherDisplay:10.37,2013-07-10 22:45:00,
2013-07-10 18:51:00,75.9,47.0,29.82,SSW,202,3.5,3.5,36,0.00,CLR,,0.00,WeatherDisplay:10.37,2013-07-10 22:51:00,
2013-07-10 18:56:00,75.7,46.1,29.82,WSW,248,5.8,5.8,35,0.00,CLR,,0.00,WeatherDisplay:10.37,2013-07-10 22:56:00,
2013-07-10 19:01:00,75.7,46.9,29.82,SSW,202,3.5,3.5,36,0.00,CLR,,0.00,WeatherDisplay:10.37,2013-07-10 23:01:00,
2013-07-10 19:06:00,75.7,46.9,29.83,SSW,202,4.6,4.6,36,0.00,CLR,,0.00,WeatherDisplay:10.37,2013-07-10 23:06:00,
2013-07-10 19:11:00,75.6,46.7,29.83,SSW,202,3.5,3.6,36,0.00,CLR,,0.00,WeatherDisplay:10.37,2013-07-10 23:11:00,
2013-07-10 19:16:00,75.6,46.0,29.83,South,180,3.5,3.6,35,0.00,CLR,,0.00,WeatherDisplay:10.37,2013-07-10 23:16:00,
2013-07-10 19:21:00,75.6,46.0,29.83,South,180,3.5,3.5,35,0.00,CLR,,0.00,WeatherDisplay:10.37,2013-07-10 23:21:00,
2013-07-10 19:26:00,75.6,46.0,29.83,SSW,202,5.8,5.8,35,0.00,CLR,,0.00,WeatherDisplay:10.37,2013-07-10 23:26:00,
2013-07-10 19:31:00,75.6,45.2,29.83,South,180,4.6,4.7,34,0.00,CLR,,0.00,WeatherDisplay:10.37,2013-07-10 23:31:00,
2013-07-10 19:36:00,75.6,45.2,29.83,South,180,4.6,4.7,34,0.00,CLR,,0.00,WeatherDisplay:10.37,2013-07-10 23:36:00,
2013-07-10 19:41:00,75.4,45.1,29.82,SSW,202,5.8,5.8,34,0.00,CLR,,0.00,WeatherDisplay:10.37,2013-07-10 23:41:00,
2013-07-10 19:46:00,75.4,45.1,29.82,SSW,202,3.5,3.5,34,0.00,CLR,,0.00,WeatherDisplay:10.37,2013-07-10 23:46:00,
2013-07-10 19:51:00,75.2,44.9,29.83,SSE,158,6.9,6.9,34,0.00,CLR,,0.00,WeatherDisplay:10.37,2013-07-10 23:51:00,
2013-07-10 19:56:00,75.0,45.5,29.83,SSW,202,3.5,3.5,35,0.00,CLR,,0.00,WeatherDisplay:10.37,2013-07-10 23:56:00,
2013-07-10 20:01:00,74.8,44.6,29.83,South,180,4.6,4.6,34,0.00,CLR,,0.00,WeatherDisplay:10.37,2013-07-11 00:01:00,
2013-07-10 20:06:00,74.8,44.6,29.83,SW,225,3.5,3.8,34,0.00,CLR,,0.00,WeatherDisplay:10.37,2013-07-11 00:06:00,
2013-07-10 20:11:00,74.7,44.4,29.83,SW,225,4.6,4.6,34,0.00,CLR,,0.00,WeatherDisplay:10.37,2013-07-11 00:11:00,
2013-07-10 20:16:00,74.7,44.4,29.84,South,180,3.5,3.8,34,0.00,CLR,,0.00,WeatherDisplay:10.37,2013-07-11 00:16:00,
2013-07-10 20:21:00,74.7,44.4,29.83,South,180,2.3,2.3,34,0.00,CLR,,0.00,WeatherDisplay:10.37,2013-07-11 00:21:00,
2013-07-10 20:26:00,74.7,44.4,29.83,South,180,4.6,4.7,34,0.00,CLR,,0.00,WeatherDisplay:10.37,2013-07-11 00:26:00,
2013-07-10 20:31:00,74.8,43.8,29.83,SSW,202,5.8,6.2,33,0.00,CLR,,0.00,WeatherDisplay:10.37,2013-07-11 00:31:00,
2013-07-10 20:36:00,74.8,43.8,29.84,SW,225,4.6,4.6,33,0.00,CLR,,0.00,WeatherDisplay:10.37,2013-07-11 00:36:00,
2013-07-10 20:41:00,74.8,43.8,29.84,South,180,5.8,6.0,33,0.00,CLR,,0.00,WeatherDisplay:10.37,2013-07-11 00:41:00,
2013-07-10 20:46:00,74.8,43.8,29.84,SSW,202,4.6,4.7,33,0.00,CLR,,0.00,WeatherDisplay:10.37,2013-07-11 00:46:00,
2013-07-10 20:51:00,74.8,43.8,29.84,SE,135,3.5,3.8,33,0.00,CLR,,0.00,WeatherDisplay:10.37,2013-07-11 00:51:00,
2013-07-10 20:56:00,74.8,43.0,29.84,WSW,248,3.5,3.5,32,0.00,CLR,,0.00,WeatherDisplay:10.37,2013-07-11 00:56:00,
2013-07-10 21:01:00,74.8,43.0,29.84,SSW,202,3.5,3.8,32,0.00,CLR,,0.00,WeatherDisplay:10.37,2013-07-11 01:01:00,
2013-07-10 21:06:00,74.8,43.0,29.84,SSW,202,6.9,6.9,32,0.00,CLR,,0.00,WeatherDisplay:10.37,2013-07-11 01:06:00,
2013-07-10 21:11:00,74.8,43.0,29.85,WSW,248,4.6,4.7,32,0.00,CLR,,0.00,WeatherDisplay:10.37,2013-07-11 01:11:00,
2013-07-10 21:16:00,75.0,43.1,29.84,SW,225,3.5,3.6,32,0.00,CLR,,0.00,WeatherDisplay:10.37,2013-07-11 01:16:00,
2013-07-10 21:21:00,74.8,43.0,29.84,SSW,202,6.9,6.9,32,0.00,CLR,,0.00,WeatherDisplay:10.37,2013-07-11 01:21:00,
2013-07-10 21:26:00,75.0,43.1,29.84,SSW,202,4.6,4.6,32,0.00,CLR,,0.00,WeatherDisplay:10.37,2013-07-11 01:26:00,
2013-07-10 21:31:00,74.8,43.0,29.84,SSW,202,6.9,6.9,32,0.00,CLR,,0.00,WeatherDisplay:10.37,2013-07-11 01:31:00,
2013-07-10 21:36:00,74.8,43.0,29.84,WSW,248,3.5,3.6,32,0.00,CLR,,0.00,WeatherDisplay:10.37,2013-07-11 01:36:00,
2013-07-10 21:41:00,74.8,43.0,29.84,South,180,6.9,6.9,32,0.00,CLR,,0.00,WeatherDisplay:10.37,2013-07-11 01:41:00,
2013-07-10 21:46:00,74.8,43.0,29.84,SSW,202,8.1,8.5,32,0.00,CLR,,0.00,WeatherDisplay:10.37,2013-07-11 01:46:00,
2013-07-10 21:51:00,74.8,43.0,29.84,SSE,158,3.5,3.6,32,0.00,CLR,,0.00,WeatherDisplay:10.37,2013-07-11 01:51:00,
2013-07-10 21:56:00,74.8,43.0,29.84,SSW,202,4.6,4.6,32,0.00,CLR,,0.00,WeatherDisplay:10.37,2013-07-11 01:56:00,
2013-07-10 22:01:00,74.8,43.0,29.84,SW,225,4.6,4.6,32,0.00,CLR,,0.00,WeatherDisplay:10.37,2013-07-11 02:01:00,
2013-07-10 22:06:00,74.8,43.0,29.84,SSW,202,5.8,5.8,32,0.00,CLR,,0.00,WeatherDisplay:10.37,2013-07-11 02:06:00,
2013-07-10 22:11:00,74.8,43.0,29.84,SSW,202,4.6,4.6,32,0.00,CLR,,0.00,WeatherDisplay:10.37,2013-07-11 02:11:00,
2013-07-10 22:16:00,74.8,43.0,29.84,SSW,202,4.6,4.9,32,0.00,CLR,,0.00,WeatherDisplay:10.37,2013-07-11 02:16:00,
2013-07-10 22:21:00,74.8,43.0,29.83,SW,225,4.6,4.6,32,0.00,CLR,,0.00,WeatherDisplay:10.37,2013-07-11 02:21:00,
2013-07-10 22:26:00,74.8,42.2,29.84,SSW,202,3.5,3.5,31,0.00,CLR,,0.00,WeatherDisplay:10.37,2013-07-11 02:26:00,
2013-07-10 22:31:00,75.0,42.3,29.84,SW,225,4.6,4.6,31,0.00,CLR,,0.00,WeatherDisplay:10.37,2013-07-11 02:31:00,
2013-07-10 22:36:00,74.8,42.2,29.83,SW,225,5.8,5.8,31,0.00,CLR,,0.00,WeatherDisplay:10.37,2013-07-11 02:36:00,
2013-07-10 22:41:00,74.8,42.2,29.83,SW,225,5.8,5.8,31,0.00,CLR,,0.00,WeatherDisplay:10.37,2013-07-11 02:41:00,
2013-07-10 22:46:00,74.8,42.2,29.83,WSW,248,4.6,4.6,31,0.00,CLR,,0.00,WeatherDisplay:10.37,2013-07-11 02:46:00,
2013-07-10 22:51:00,74.8,42.2,29.83,SSW,202,4.6,4.6,31,0.00,CLR,,0.00,WeatherDisplay:10.37,2013-07-11 02:51:00,
2013-07-10 22:56:00,74.8,42.2,29.83,SW,225,4.6,4.6,31,0.00,CLR,,0.00,WeatherDisplay:10.37,2013-07-11 02:56:00,
2013-07-10 23:01:00,74.8,42.2,29.83,SSW,202,5.8,5.8,31,0.00,CLR,,0.00,WeatherDisplay:10.37,2013-07-11 03:01:00,
2013-07-10 23:06:00,74.8,42.2,29.82,SSW,202,4.6,4.6,31,0.00,CLR,,0.00,WeatherDisplay:10.37,2013-07-11 03:06:00,
2013-07-10 23:11:00,74.7,42.0,29.82,WSW,248,3.5,5.4,31,0.00,CLR,,0.00,WeatherDisplay:10.37,2013-07-11 03:11:00,
2013-07-10 23:16:00,74.7,42.0,29.82,SSE,158,5.8,5.8,31,0.00,CLR,,0.00,WeatherDisplay:10.37,2013-07-11 03:16:00,
2013-07-10 23:21:00,74.7,42.0,29.82,SSW,202,9.2,9.2,31,0.00,CLR,,0.00,WeatherDisplay:10.37,2013-07-11 03:21:00,
2013-07-10 23:26:00,74.5,41.9,29.82,SW,225,5.8,5.8,31,0.00,CLR,,0.00,WeatherDisplay:10.37,2013-07-11 03:26:00,
2013-07-10 23:31:00,74.5,41.9,29.82,SSW,202,5.8,5.8,31,0.00,CLR,,0.00,WeatherDisplay:10.37,2013-07-11 03:31:00,
2013-07-10 23:36:00,74.5,41.9,29.82,SSW,202,4.6,4.6,31,0.00,CLR,,0.00,WeatherDisplay:10.37,2013-07-11 03:36:00,
2013-07-10 23:42:00,74.5,41.9,29.82,SSW,202,4.6,4.7,31,0.00,CLR,,0.00,WeatherDisplay:10.37,2013-07-11 03:42:00,
2013-07-10 23:47:00,74.5,41.9,29.82,SSW,202,5.8,5.8,31,0.00,CLR,,0.00,WeatherDisplay:10.37,2013-07-11 03:47:00,
2013-07-10 23:52:00,74.5,41.9,29.82,WSW,248,8.1,8.1,31,0.00,CLR,,0.00,WeatherDisplay:10.37,2013-07-11 03:52:00,
2013-07-10 23:57:00,74.5,41.9,29.82,SSW,202,4.6,4.9,31,0.00,CLR,,0.00,WeatherDisplay:10.37,2013-07-11 03:57:00,